sensor_id;sensor_type;location;lat;lon;timestamp;temperature;humidity
30648;DHT22;17683;53.360;9.736;2022-08-19T00:00:39;20.10;99.90
30648;DHT22;17683;53.360;9.736;2022-08-19T00:03:05;20.10;99.90
30648;DHT22;17683;53.360;9.736;2022-08-19T00:05:32;20.00;99.90
30648;DHT22;17683;53.360;9.736;2022-08-19T00:07:59;20.00;99.90
30648;DHT22;17683;53.360;9.736;2022-08-19T00:10:25;20.00;99.90
30648;DHT22;17683;53.360;9.736;2022-08-19T00:12:51;20.00;99.90
30648;DHT22;17683;53.360;9.736;2022-08-19T00:15:21;20.00;99.90
30648;DHT22;17683;53.360;9.736;2022-08-19T00:17:47;20.00;99.90
30648;DHT22;17683;53.360;9.736;2022-08-19T00:20:15;20.00;99.90
30648;DHT22;17683;53.360;9.736;2022-08-19T00:22:45;20.00;99.90
30648;DHT22;17683;53.360;9.736;2022-08-19T00:25:12;20.00;99.90
30648;DHT22;17683;53.360;9.736;2022-08-19T00:27:37;19.90;99.90
30648;DHT22;17683;53.360;9.736;2022-08-19T00:30:04;20.00;99.90
30648;DHT22;17683;53.360;9.736;2022-08-19T00:32:31;19.90;99.90
30648;DHT22;17683;53.360;9.736;2022-08-19T00:34:57;19.90;99.90
30648;DHT22;17683;53.360;9.736;2022-08-19T00:37:23;19.90;99.90
30648;DHT22;17683;53.360;9.736;2022-08-19T00:39:51;19.90;99.90
30648;DHT22;17683;53.360;9.736;2022-08-19T00:42:18;19.90;99.90
30648;DHT22;17683;53.360;9.736;2022-08-19T00:44:44;19.90;99.90
30648;DHT22;17683;53.360;9.736;2022-08-19T00:47:10;19.90;99.90
30648;DHT22;17683;53.360;9.736;2022-08-19T00:52:14;19.90;99.90
30648;DHT22;17683;53.360;9.736;2022-08-19T00:54:41;19.90;99.90
30648;DHT22;17683;53.360;9.736;2022-08-19T00:57:12;19.90;99.90
30648;DHT22;17683;53.360;9.736;2022-08-19T00:59:41;19.90;99.90
30648;DHT22;17683;53.360;9.736;2022-08-19T01:02:08;19.90;99.90
30648;DHT22;17683;53.360;9.736;2022-08-19T01:04:34;19.80;99.90
30648;DHT22;17683;53.360;9.736;2022-08-19T01:07:01;19.80;99.90
30648;DHT22;17683;53.360;9.736;2022-08-19T01:09:27;19.90;99.90
30648;DHT22;17683;53.360;9.736;2022-08-19T01:11:53;19.80;99.90
30648;DHT22;17683;53.360;9.736;2022-08-19T01:14:19;19.80;99.90
30648;DHT22;17683;53.360;9.736;2022-08-19T01:16:46;19.80;99.90
30648;DHT22;17683;53.360;9.736;2022-08-19T01:19:47;19.80;99.90
30648;DHT22;17683;53.360;9.736;2022-08-19T01:22:19;19.80;99.90
30648;DHT22;17683;53.360;9.736;2022-08-19T01:24:47;19.80;99.90
30648;DHT22;17683;53.360;9.736;2022-08-19T01:27:13;19.80;99.90
30648;DHT22;17683;53.360;9.736;2022-08-19T01:29:41;19.80;99.90
30648;DHT22;17683;53.360;9.736;2022-08-19T01:32:10;19.80;99.90
30648;DHT22;17683;53.360;9.736;2022-08-19T01:34:37;19.70;99.90
30648;DHT22;17683;53.360;9.736;2022-08-19T01:37:09;19.70;99.90
30648;DHT22;17683;53.360;9.736;2022-08-19T01:39:37;19.70;99.90
30648;DHT22;17683;53.360;9.736;2022-08-19T01:42:04;19.70;99.90
30648;DHT22;17683;53.360;9.736;2022-08-19T01:44:32;19.70;99.90
30648;DHT22;17683;53.360;9.736;2022-08-19T01:46:58;19.70;99.90
30648;DHT22;17683;53.360;9.736;2022-08-19T01:49:25;19.70;99.90
30648;DHT22;17683;53.360;9.736;2022-08-19T01:51:52;19.70;99.90
30648;DHT22;17683;53.360;9.736;2022-08-19T01:54:20;19.60;99.90
30648;DHT22;17683;53.360;9.736;2022-08-19T01:56:46;19.60;99.90
30648;DHT22;17683;53.360;9.736;2022-08-19T01:59:16;19.60;99.90
30648;DHT22;17683;53.360;9.736;2022-08-19T02:01:42;19.60;99.90
30648;DHT22;17683;53.360;9.736;2022-08-19T02:04:08;19.60;99.90
30648;DHT22;17683;53.360;9.736;2022-08-19T02:06:34;19.60;99.90
30648;DHT22;17683;53.360;9.736;2022-08-19T02:09:00;19.60;99.90
30648;DHT22;17683;53.360;9.736;2022-08-19T02:11:32;19.50;99.90
30648;DHT22;17683;53.360;9.736;2022-08-19T02:14:00;19.50;99.90
30648;DHT22;17683;53.360;9.736;2022-08-19T02:16:28;19.50;99.90
30648;DHT22;17683;53.360;9.736;2022-08-19T02:18:54;19.50;99.90
30648;DHT22;17683;53.360;9.736;2022-08-19T02:21:22;19.50;99.90
30648;DHT22;17683;53.360;9.736;2022-08-19T02:23:50;19.40;99.90
30648;DHT22;17683;53.360;9.736;2022-08-19T02:26:16;19.40;99.90
30648;DHT22;17683;53.360;9.736;2022-08-19T02:28:42;19.40;99.90
30648;DHT22;17683;53.360;9.736;2022-08-19T02:31:20;19.40;99.90
30648;DHT22;17683;53.360;9.736;2022-08-19T02:33:46;19.40;99.90
30648;DHT22;17683;53.360;9.736;2022-08-19T02:36:14;19.40;99.90
30648;DHT22;17683;53.360;9.736;2022-08-19T02:38:40;19.40;99.90
30648;DHT22;17683;53.360;9.736;2022-08-19T02:41:19;19.40;99.90
30648;DHT22;17683;53.360;9.736;2022-08-19T02:43:45;19.40;99.90
30648;DHT22;17683;53.360;9.736;2022-08-19T02:46:13;19.40;99.90
30648;DHT22;17683;53.360;9.736;2022-08-19T02:48:39;19.40;99.90
30648;DHT22;17683;53.360;9.736;2022-08-19T02:51:05;19.40;99.90
30648;DHT22;17683;53.360;9.736;2022-08-19T02:53:31;19.40;99.90
30648;DHT22;17683;53.360;9.736;2022-08-19T02:55:57;19.40;99.90
30648;DHT22;17683;53.360;9.736;2022-08-19T02:58:23;19.40;99.90
30648;DHT22;17683;53.360;9.736;2022-08-19T03:00:53;19.40;99.90
30648;DHT22;17683;53.360;9.736;2022-08-19T03:03:19;19.40;99.90
30648;DHT22;17683;53.360;9.736;2022-08-19T03:05:45;19.40;99.90
30648;DHT22;17683;53.360;9.736;2022-08-19T03:08:12;19.40;99.90
30648;DHT22;17683;53.360;9.736;2022-08-19T03:10:44;19.40;99.90
30648;DHT22;17683;53.360;9.736;2022-08-19T03:13:17;19.30;99.90
30648;DHT22;17683;53.360;9.736;2022-08-19T03:15:44;19.30;99.90
30648;DHT22;17683;53.360;9.736;2022-08-19T03:18:11;19.30;99.90
30648;DHT22;17683;53.360;9.736;2022-08-19T03:20:43;19.30;99.90
30648;DHT22;17683;53.360;9.736;2022-08-19T03:23:09;19.20;99.90
30648;DHT22;17683;53.360;9.736;2022-08-19T03:25:40;19.20;99.90
30648;DHT22;17683;53.360;9.736;2022-08-19T03:28:09;19.30;99.90
30648;DHT22;17683;53.360;9.736;2022-08-19T03:30:35;19.20;99.90
30648;DHT22;17683;53.360;9.736;2022-08-19T03:33:01;19.20;99.90
30648;DHT22;17683;53.360;9.736;2022-08-19T03:35:27;19.30;99.90
30648;DHT22;17683;53.360;9.736;2022-08-19T03:37:53;19.20;99.90
30648;DHT22;17683;53.360;9.736;2022-08-19T03:40:19;19.20;99.90
30648;DHT22;17683;53.360;9.736;2022-08-19T03:42:45;19.20;99.90
30648;DHT22;17683;53.360;9.736;2022-08-19T03:45:11;19.20;99.90
30648;DHT22;17683;53.360;9.736;2022-08-19T03:47:37;19.30;99.90
30648;DHT22;17683;53.360;9.736;2022-08-19T03:50:03;19.30;99.90
30648;DHT22;17683;53.360;9.736;2022-08-19T03:52:30;19.30;99.90
30648;DHT22;17683;53.360;9.736;2022-08-19T03:54:56;19.20;99.90
30648;DHT22;17683;53.360;9.736;2022-08-19T03:57:21;19.20;99.90
30648;DHT22;17683;53.360;9.736;2022-08-19T03:59:47;19.30;99.90
30648;DHT22;17683;53.360;9.736;2022-08-19T04:02:13;19.20;99.90
30648;DHT22;17683;53.360;9.736;2022-08-19T04:04:41;19.20;99.90
30648;DHT22;17683;53.360;9.736;2022-08-19T04:07:07;19.20;99.90
30648;DHT22;17683;53.360;9.736;2022-08-19T04:09:34;19.20;99.90
30648;DHT22;17683;53.360;9.736;2022-08-19T04:12:02;19.20;99.90
30648;DHT22;17683;53.360;9.736;2022-08-19T04:14:30;19.20;99.90
30648;DHT22;17683;53.360;9.736;2022-08-19T04:16:58;19.20;99.90
30648;DHT22;17683;53.360;9.736;2022-08-19T04:19:25;19.20;99.90
30648;DHT22;17683;53.360;9.736;2022-08-19T04:21:53;19.10;99.90
30648;DHT22;17683;53.360;9.736;2022-08-19T04:24:20;19.10;99.90
30648;DHT22;17683;53.360;9.736;2022-08-19T04:26:47;19.20;99.90
30648;DHT22;17683;53.360;9.736;2022-08-19T04:29:19;19.10;99.90
30648;DHT22;17683;53.360;9.736;2022-08-19T04:31:47;19.20;99.90
30648;DHT22;17683;53.360;9.736;2022-08-19T04:34:16;19.10;99.90
30648;DHT22;17683;53.360;9.736;2022-08-19T04:36:45;19.10;99.90
30648;DHT22;17683;53.360;9.736;2022-08-19T04:39:15;19.10;99.90
30648;DHT22;17683;53.360;9.736;2022-08-19T04:41:42;19.10;99.90
30648;DHT22;17683;53.360;9.736;2022-08-19T04:44:26;19.10;99.90
30648;DHT22;17683;53.360;9.736;2022-08-19T04:46:56;19.10;99.90
30648;DHT22;17683;53.360;9.736;2022-08-19T04:49:23;19.10;99.90
30648;DHT22;17683;53.360;9.736;2022-08-19T04:51:51;19.00;99.90
30648;DHT22;17683;53.360;9.736;2022-08-19T04:54:20;19.00;99.90
30648;DHT22;17683;53.360;9.736;2022-08-19T04:56:49;19.00;99.90
30648;DHT22;17683;53.360;9.736;2022-08-19T04:59:16;19.00;99.90
30648;DHT22;17683;53.360;9.736;2022-08-19T05:01:42;19.00;99.90
30648;DHT22;17683;53.360;9.736;2022-08-19T05:04:08;19.00;99.90
30648;DHT22;17683;53.360;9.736;2022-08-19T05:06:35;19.00;99.90
30648;DHT22;17683;53.360;9.736;2022-08-19T05:09:04;19.00;99.90
30648;DHT22;17683;53.360;9.736;2022-08-19T05:11:33;19.00;99.90
30648;DHT22;17683;53.360;9.736;2022-08-19T05:14:00;19.10;99.90
30648;DHT22;17683;53.360;9.736;2022-08-19T05:16:27;19.10;99.90
30648;DHT22;17683;53.360;9.736;2022-08-19T05:18:53;19.10;99.90
30648;DHT22;17683;53.360;9.736;2022-08-19T05:21:40;19.10;99.90
30648;DHT22;17683;53.360;9.736;2022-08-19T05:24:24;19.10;99.90
30648;DHT22;17683;53.360;9.736;2022-08-19T05:26:52;19.10;99.90
30648;DHT22;17683;53.360;9.736;2022-08-19T05:29:24;19.10;99.90
30648;DHT22;17683;53.360;9.736;2022-08-19T05:31:51;19.10;99.90
30648;DHT22;17683;53.360;9.736;2022-08-19T05:34:18;19.20;99.90
30648;DHT22;17683;53.360;9.736;2022-08-19T05:36:48;19.20;99.90
30648;DHT22;17683;53.360;9.736;2022-08-19T05:39:19;19.10;99.90
30648;DHT22;17683;53.360;9.736;2022-08-19T05:41:48;19.10;99.90
30648;DHT22;17683;53.360;9.736;2022-08-19T05:44:14;19.10;99.90
30648;DHT22;17683;53.360;9.736;2022-08-19T05:46:43;19.10;99.90
30648;DHT22;17683;53.360;9.736;2022-08-19T05:49:12;19.10;99.90
30648;DHT22;17683;53.360;9.736;2022-08-19T05:51:38;19.10;99.90
30648;DHT22;17683;53.360;9.736;2022-08-19T05:54:05;19.10;99.90
30648;DHT22;17683;53.360;9.736;2022-08-19T05:56:33;19.10;99.90
30648;DHT22;17683;53.360;9.736;2022-08-19T05:59:02;19.10;99.90
30648;DHT22;17683;53.360;9.736;2022-08-19T06:01:29;19.10;99.90
30648;DHT22;17683;53.360;9.736;2022-08-19T06:03:55;19.20;99.90
30648;DHT22;17683;53.360;9.736;2022-08-19T06:06:21;19.20;99.90
30648;DHT22;17683;53.360;9.736;2022-08-19T06:08:47;19.20;99.90
30648;DHT22;17683;53.360;9.736;2022-08-19T06:11:17;19.20;99.90
30648;DHT22;17683;53.360;9.736;2022-08-19T06:13:44;19.20;99.90
30648;DHT22;17683;53.360;9.736;2022-08-19T06:16:12;19.20;99.90
30648;DHT22;17683;53.360;9.736;2022-08-19T06:18:38;19.20;99.90
30648;DHT22;17683;53.360;9.736;2022-08-19T06:21:04;19.30;99.90
30648;DHT22;17683;53.360;9.736;2022-08-19T06:23:30;19.20;99.90
30648;DHT22;17683;53.360;9.736;2022-08-19T06:25:56;19.30;99.90
30648;DHT22;17683;53.360;9.736;2022-08-19T06:28:22;19.20;99.90
30648;DHT22;17683;53.360;9.736;2022-08-19T06:30:49;19.20;99.90
30648;DHT22;17683;53.360;9.736;2022-08-19T06:33:16;19.20;99.90
30648;DHT22;17683;53.360;9.736;2022-08-19T06:35:42;19.20;99.90
30648;DHT22;17683;53.360;9.736;2022-08-19T06:38:08;19.20;99.90
30648;DHT22;17683;53.360;9.736;2022-08-19T06:40:35;19.20;99.90
30648;DHT22;17683;53.360;9.736;2022-08-19T06:43:01;19.30;99.90
30648;DHT22;17683;53.360;9.736;2022-08-19T06:45:28;19.30;99.90
30648;DHT22;17683;53.360;9.736;2022-08-19T06:47:53;19.20;99.90
30648;DHT22;17683;53.360;9.736;2022-08-19T06:50:22;19.30;99.90
30648;DHT22;17683;53.360;9.736;2022-08-19T06:52:47;19.30;99.90
30648;DHT22;17683;53.360;9.736;2022-08-19T06:55:14;19.30;99.90
30648;DHT22;17683;53.360;9.736;2022-08-19T06:57:41;19.30;99.90
30648;DHT22;17683;53.360;9.736;2022-08-19T07:00:08;19.30;99.90
30648;DHT22;17683;53.360;9.736;2022-08-19T07:02:42;19.30;99.90
30648;DHT22;17683;53.360;9.736;2022-08-19T07:05:08;19.30;99.90
30648;DHT22;17683;53.360;9.736;2022-08-19T07:07:34;19.30;99.90
30648;DHT22;17683;53.360;9.736;2022-08-19T07:10:00;19.30;99.90
30648;DHT22;17683;53.360;9.736;2022-08-19T07:12:30;19.40;99.90
30648;DHT22;17683;53.360;9.736;2022-08-19T07:14:59;19.30;99.90
30648;DHT22;17683;53.360;9.736;2022-08-19T07:17:26;19.40;99.90
30648;DHT22;17683;53.360;9.736;2022-08-19T07:19:52;19.20;99.90
30648;DHT22;17683;53.360;9.736;2022-08-19T07:22:18;19.20;99.90
30648;DHT22;17683;53.360;9.736;2022-08-19T07:24:45;19.20;99.90
30648;DHT22;17683;53.360;9.736;2022-08-19T07:27:13;19.20;99.90
30648;DHT22;17683;53.360;9.736;2022-08-19T07:29:39;19.20;99.90
30648;DHT22;17683;53.360;9.736;2022-08-19T07:32:06;19.20;99.90
30648;DHT22;17683;53.360;9.736;2022-08-19T07:34:32;19.10;99.90
30648;DHT22;17683;53.360;9.736;2022-08-19T07:37:06;19.10;99.90
30648;DHT22;17683;53.360;9.736;2022-08-19T07:39:34;19.20;99.90
30648;DHT22;17683;53.360;9.736;2022-08-19T07:42:04;19.20;99.90
30648;DHT22;17683;53.360;9.736;2022-08-19T07:44:32;19.10;99.90
30648;DHT22;17683;53.360;9.736;2022-08-19T07:46:59;19.10;99.90
30648;DHT22;17683;53.360;9.736;2022-08-19T07:49:26;19.10;99.90
30648;DHT22;17683;53.360;9.736;2022-08-19T07:51:58;19.10;99.90
30648;DHT22;17683;53.360;9.736;2022-08-19T07:54:29;19.20;99.90
30648;DHT22;17683;53.360;9.736;2022-08-19T07:56:55;19.20;99.90
30648;DHT22;17683;53.360;9.736;2022-08-19T07:59:22;19.20;99.90
30648;DHT22;17683;53.360;9.736;2022-08-19T08:01:48;19.20;99.90
30648;DHT22;17683;53.360;9.736;2022-08-19T08:04:16;19.20;99.90
30648;DHT22;17683;53.360;9.736;2022-08-19T08:07:01;19.20;99.90
30648;DHT22;17683;53.360;9.736;2022-08-19T08:09:46;19.20;99.90
30648;DHT22;17683;53.360;9.736;2022-08-19T08:12:19;19.20;99.90
30648;DHT22;17683;53.360;9.736;2022-08-19T08:14:51;19.20;99.90
30648;DHT22;17683;53.360;9.736;2022-08-19T08:17:19;19.20;99.90
30648;DHT22;17683;53.360;9.736;2022-08-19T08:19:45;19.20;99.90
30648;DHT22;17683;53.360;9.736;2022-08-19T08:22:14;19.20;99.90
30648;DHT22;17683;53.360;9.736;2022-08-19T08:25:04;19.20;99.90
30648;DHT22;17683;53.360;9.736;2022-08-19T08:27:31;19.20;99.90
30648;DHT22;17683;53.360;9.736;2022-08-19T08:29:57;19.20;99.90
30648;DHT22;17683;53.360;9.736;2022-08-19T08:32:23;19.20;99.90
30648;DHT22;17683;53.360;9.736;2022-08-19T08:34:49;19.30;99.90
30648;DHT22;17683;53.360;9.736;2022-08-19T08:37:15;19.30;99.90
30648;DHT22;17683;53.360;9.736;2022-08-19T08:39:40;19.40;99.90
30648;DHT22;17683;53.360;9.736;2022-08-19T08:42:22;19.40;99.90
30648;DHT22;17683;53.360;9.736;2022-08-19T08:45:08;19.40;99.90
30648;DHT22;17683;53.360;9.736;2022-08-19T08:47:44;19.40;99.90
30648;DHT22;17683;53.360;9.736;2022-08-19T08:52:46;19.40;99.90
30648;DHT22;17683;53.360;9.736;2022-08-19T08:55:24;19.50;99.90
30648;DHT22;17683;53.360;9.736;2022-08-19T08:58:03;19.50;99.90
30648;DHT22;17683;53.360;9.736;2022-08-19T09:00:34;19.50;99.90
30648;DHT22;17683;53.360;9.736;2022-08-19T09:03:03;19.60;99.90
30648;DHT22;17683;53.360;9.736;2022-08-19T09:08:38;19.70;99.90
30648;DHT22;17683;53.360;9.736;2022-08-19T09:11:08;19.80;99.90
30648;DHT22;17683;53.360;9.736;2022-08-19T09:14:02;19.90;99.90
30648;DHT22;17683;53.360;9.736;2022-08-19T09:16:30;19.90;99.90
30648;DHT22;17683;53.360;9.736;2022-08-19T09:19:00;20.00;99.90
30648;DHT22;17683;53.360;9.736;2022-08-19T09:21:26;20.00;99.90
30648;DHT22;17683;53.360;9.736;2022-08-19T09:23:53;20.00;99.90
30648;DHT22;17683;53.360;9.736;2022-08-19T09:26:21;20.00;99.90
30648;DHT22;17683;53.360;9.736;2022-08-19T09:28:50;20.00;99.90
30648;DHT22;17683;53.360;9.736;2022-08-19T09:31:25;20.00;99.90
30648;DHT22;17683;53.360;9.736;2022-08-19T09:33:51;20.00;99.90
30648;DHT22;17683;53.360;9.736;2022-08-19T09:36:19;20.10;99.90
30648;DHT22;17683;53.360;9.736;2022-08-19T09:38:47;20.10;99.90
30648;DHT22;17683;53.360;9.736;2022-08-19T09:41:16;20.20;99.90
30648;DHT22;17683;53.360;9.736;2022-08-19T09:43:44;20.30;99.90
30648;DHT22;17683;53.360;9.736;2022-08-19T09:46:10;20.30;99.90
30648;DHT22;17683;53.360;9.736;2022-08-19T09:48:39;20.30;99.90
30648;DHT22;17683;53.360;9.736;2022-08-19T09:51:13;20.40;99.90
30648;DHT22;17683;53.360;9.736;2022-08-19T09:53:43;20.50;99.90
30648;DHT22;17683;53.360;9.736;2022-08-19T09:56:09;20.50;99.90
30648;DHT22;17683;53.360;9.736;2022-08-19T09:58:35;20.50;99.90
30648;DHT22;17683;53.360;9.736;2022-08-19T10:01:02;20.40;99.90
30648;DHT22;17683;53.360;9.736;2022-08-19T10:03:29;20.40;99.90
30648;DHT22;17683;53.360;9.736;2022-08-19T10:05:57;20.50;99.90
30648;DHT22;17683;53.360;9.736;2022-08-19T10:08:29;20.50;99.90
30648;DHT22;17683;53.360;9.736;2022-08-19T10:10:56;20.50;99.90
30648;DHT22;17683;53.360;9.736;2022-08-19T10:13:27;20.50;99.90
30648;DHT22;17683;53.360;9.736;2022-08-19T10:15:55;20.50;99.90
30648;DHT22;17683;53.360;9.736;2022-08-19T10:18:24;20.50;99.90
30648;DHT22;17683;53.360;9.736;2022-08-19T10:20:51;20.60;99.90
30648;DHT22;17683;53.360;9.736;2022-08-19T10:23:19;20.60;99.90
30648;DHT22;17683;53.360;9.736;2022-08-19T10:25:45;20.70;99.90
30648;DHT22;17683;53.360;9.736;2022-08-19T10:28:11;20.70;99.90
30648;DHT22;17683;53.360;9.736;2022-08-19T10:30:40;20.80;99.90
30648;DHT22;17683;53.360;9.736;2022-08-19T10:33:06;20.80;99.90
30648;DHT22;17683;53.360;9.736;2022-08-19T10:35:32;20.90;99.90
30648;DHT22;17683;53.360;9.736;2022-08-19T10:37:59;20.90;99.90
30648;DHT22;17683;53.360;9.736;2022-08-19T10:40:27;21.00;99.90
30648;DHT22;17683;53.360;9.736;2022-08-19T10:42:54;20.90;99.90
30648;DHT22;17683;53.360;9.736;2022-08-19T10:45:21;20.90;99.90
30648;DHT22;17683;53.360;9.736;2022-08-19T10:47:48;21.00;99.90
30648;DHT22;17683;53.360;9.736;2022-08-19T10:50:14;21.00;99.90
30648;DHT22;17683;53.360;9.736;2022-08-19T10:53:04;21.10;99.90
30648;DHT22;17683;53.360;9.736;2022-08-19T10:55:30;21.20;99.90
30648;DHT22;17683;53.360;9.736;2022-08-19T10:58:18;21.30;99.90
30648;DHT22;17683;53.360;9.736;2022-08-19T11:00:56;21.40;99.90
30648;DHT22;17683;53.360;9.736;2022-08-19T11:03:23;21.40;99.90
30648;DHT22;17683;53.360;9.736;2022-08-19T11:06:07;21.50;99.90
30648;DHT22;17683;53.360;9.736;2022-08-19T11:08:34;21.60;99.90
30648;DHT22;17683;53.360;9.736;2022-08-19T11:11:01;21.60;99.90
30648;DHT22;17683;53.360;9.736;2022-08-19T11:13:30;21.60;99.90
30648;DHT22;17683;53.360;9.736;2022-08-19T11:16:01;21.60;99.90
30648;DHT22;17683;53.360;9.736;2022-08-19T11:18:27;21.60;99.90
30648;DHT22;17683;53.360;9.736;2022-08-19T11:20:53;21.60;99.90
30648;DHT22;17683;53.360;9.736;2022-08-19T11:23:19;21.70;99.90
30648;DHT22;17683;53.360;9.736;2022-08-19T11:25:45;21.60;99.90
30648;DHT22;17683;53.360;9.736;2022-08-19T11:28:12;21.60;99.90
30648;DHT22;17683;53.360;9.736;2022-08-19T11:30:38;21.70;99.90
30648;DHT22;17683;53.360;9.736;2022-08-19T11:33:04;21.70;99.90
30648;DHT22;17683;53.360;9.736;2022-08-19T11:35:30;21.80;99.90
30648;DHT22;17683;53.360;9.736;2022-08-19T11:37:56;21.90;99.90
30648;DHT22;17683;53.360;9.736;2022-08-19T11:40:26;22.00;99.90
30648;DHT22;17683;53.360;9.736;2022-08-19T11:42:52;22.10;99.90
30648;DHT22;17683;53.360;9.736;2022-08-19T11:45:22;22.30;99.90
30648;DHT22;17683;53.360;9.736;2022-08-19T11:47:48;22.40;99.90
30648;DHT22;17683;53.360;9.736;2022-08-19T11:50:15;22.50;99.90
30648;DHT22;17683;53.360;9.736;2022-08-19T11:52:41;22.60;99.90
30648;DHT22;17683;53.360;9.736;2022-08-19T11:55:08;22.60;99.90
30648;DHT22;17683;53.360;9.736;2022-08-19T11:57:34;22.70;99.90
30648;DHT22;17683;53.360;9.736;2022-08-19T11:59:59;22.70;99.90
30648;DHT22;17683;53.360;9.736;2022-08-19T12:02:26;22.80;99.90
30648;DHT22;17683;53.360;9.736;2022-08-19T12:04:52;22.90;99.90
30648;DHT22;17683;53.360;9.736;2022-08-19T12:07:19;23.00;99.90
30648;DHT22;17683;53.360;9.736;2022-08-19T12:09:44;23.10;99.90
30648;DHT22;17683;53.360;9.736;2022-08-19T12:12:11;23.30;99.90
30648;DHT22;17683;53.360;9.736;2022-08-19T12:14:37;23.40;99.90
30648;DHT22;17683;53.360;9.736;2022-08-19T12:17:03;23.40;99.90
30648;DHT22;17683;53.360;9.736;2022-08-19T12:19:31;23.40;99.90
30648;DHT22;17683;53.360;9.736;2022-08-19T12:22:01;23.40;99.90
30648;DHT22;17683;53.360;9.736;2022-08-19T12:24:30;23.50;99.90
30648;DHT22;17683;53.360;9.736;2022-08-19T12:26:57;23.50;99.90
30648;DHT22;17683;53.360;9.736;2022-08-19T12:29:24;23.50;99.90
30648;DHT22;17683;53.360;9.736;2022-08-19T12:31:55;23.50;99.90
30648;DHT22;17683;53.360;9.736;2022-08-19T12:34:27;23.50;99.90
30648;DHT22;17683;53.360;9.736;2022-08-19T12:36:56;23.50;99.90
30648;DHT22;17683;53.360;9.736;2022-08-19T12:39:22;23.50;99.90
30648;DHT22;17683;53.360;9.736;2022-08-19T12:41:48;23.50;99.90
30648;DHT22;17683;53.360;9.736;2022-08-19T12:44:14;23.50;99.90
30648;DHT22;17683;53.360;9.736;2022-08-19T12:46:40;23.60;99.90
30648;DHT22;17683;53.360;9.736;2022-08-19T12:49:06;23.70;99.90
30648;DHT22;17683;53.360;9.736;2022-08-19T12:51:31;23.70;99.90
30648;DHT22;17683;53.360;9.736;2022-08-19T12:53:57;23.60;99.90
30648;DHT22;17683;53.360;9.736;2022-08-19T12:56:23;23.60;99.90
30648;DHT22;17683;53.360;9.736;2022-08-19T12:58:49;23.50;99.90
30648;DHT22;17683;53.360;9.736;2022-08-19T13:01:16;23.50;99.90
30648;DHT22;17683;53.360;9.736;2022-08-19T13:03:44;23.50;99.90
30648;DHT22;17683;53.360;9.736;2022-08-19T13:06:09;23.50;99.90
30648;DHT22;17683;53.360;9.736;2022-08-19T13:08:35;23.60;99.90
30648;DHT22;17683;53.360;9.736;2022-08-19T13:11:13;23.50;99.90
30648;DHT22;17683;53.360;9.736;2022-08-19T13:13:41;23.60;99.90
30648;DHT22;17683;53.360;9.736;2022-08-19T13:16:09;23.50;99.90
30648;DHT22;17683;53.360;9.736;2022-08-19T13:18:36;23.60;99.90
30648;DHT22;17683;53.360;9.736;2022-08-19T13:21:07;23.70;99.90
30648;DHT22;17683;53.360;9.736;2022-08-19T13:23:34;23.80;99.90
30648;DHT22;17683;53.360;9.736;2022-08-19T13:26:03;23.80;99.90
30648;DHT22;17683;53.360;9.736;2022-08-19T13:28:31;23.80;99.90
30648;DHT22;17683;53.360;9.736;2022-08-19T13:31:19;23.80;99.90
30648;DHT22;17683;53.360;9.736;2022-08-19T13:34:04;23.90;99.90
30648;DHT22;17683;53.360;9.736;2022-08-19T13:36:34;23.90;99.90
30648;DHT22;17683;53.360;9.736;2022-08-19T13:39:00;23.90;99.90
30648;DHT22;17683;53.360;9.736;2022-08-19T13:41:26;23.90;99.90
30648;DHT22;17683;53.360;9.736;2022-08-19T13:43:53;24.00;99.90
30648;DHT22;17683;53.360;9.736;2022-08-19T13:46:20;24.00;99.90
30648;DHT22;17683;53.360;9.736;2022-08-19T13:48:46;23.90;99.90
30648;DHT22;17683;53.360;9.736;2022-08-19T13:51:14;23.90;99.90
30648;DHT22;17683;53.360;9.736;2022-08-19T13:53:42;23.80;99.90
30648;DHT22;17683;53.360;9.736;2022-08-19T13:56:13;23.90;99.90
30648;DHT22;17683;53.360;9.736;2022-08-19T13:58:39;23.80;99.90
30648;DHT22;17683;53.360;9.736;2022-08-19T14:01:05;23.80;99.90
30648;DHT22;17683;53.360;9.736;2022-08-19T14:03:33;23.80;99.90
30648;DHT22;17683;53.360;9.736;2022-08-19T14:05:59;23.70;99.90
30648;DHT22;17683;53.360;9.736;2022-08-19T14:08:25;23.70;99.90
30648;DHT22;17683;53.360;9.736;2022-08-19T14:10:53;23.80;99.90
30648;DHT22;17683;53.360;9.736;2022-08-19T14:13:21;23.90;99.90
30648;DHT22;17683;53.360;9.736;2022-08-19T14:15:47;24.10;99.90
30648;DHT22;17683;53.360;9.736;2022-08-19T14:18:14;24.20;99.90
30648;DHT22;17683;53.360;9.736;2022-08-19T14:20:41;24.30;99.90
30648;DHT22;17683;53.360;9.736;2022-08-19T14:23:06;24.40;99.90
30648;DHT22;17683;53.360;9.736;2022-08-19T14:25:32;24.30;99.90
30648;DHT22;17683;53.360;9.736;2022-08-19T14:27:59;24.30;99.90
30648;DHT22;17683;53.360;9.736;2022-08-19T14:30:31;24.30;99.90
30648;DHT22;17683;53.360;9.736;2022-08-19T14:32:59;24.30;99.90
30648;DHT22;17683;53.360;9.736;2022-08-19T14:35:29;24.30;99.90
30648;DHT22;17683;53.360;9.736;2022-08-19T14:37:55;24.30;99.90
30648;DHT22;17683;53.360;9.736;2022-08-19T14:40:25;24.30;99.90
30648;DHT22;17683;53.360;9.736;2022-08-19T14:42:57;24.40;99.90
30648;DHT22;17683;53.360;9.736;2022-08-19T14:45:26;24.40;99.90
30648;DHT22;17683;53.360;9.736;2022-08-19T14:47:52;24.40;99.90
30648;DHT22;17683;53.360;9.736;2022-08-19T14:50:19;24.30;99.90
30648;DHT22;17683;53.360;9.736;2022-08-19T14:52:46;24.30;99.90
30648;DHT22;17683;53.360;9.736;2022-08-19T14:55:13;24.30;99.90
30648;DHT22;17683;53.360;9.736;2022-08-19T14:57:41;24.30;99.90
30648;DHT22;17683;53.360;9.736;2022-08-19T15:00:07;24.30;99.90
30648;DHT22;17683;53.360;9.736;2022-08-19T15:02:37;24.20;99.90
30648;DHT22;17683;53.360;9.736;2022-08-19T15:05:03;24.20;99.90
30648;DHT22;17683;53.360;9.736;2022-08-19T15:07:29;24.30;99.90
30648;DHT22;17683;53.360;9.736;2022-08-19T15:09:55;24.30;99.90
30648;DHT22;17683;53.360;9.736;2022-08-19T15:12:20;24.30;99.90
30648;DHT22;17683;53.360;9.736;2022-08-19T15:14:47;24.30;99.90
30648;DHT22;17683;53.360;9.736;2022-08-19T15:17:16;24.50;99.90
30648;DHT22;17683;53.360;9.736;2022-08-19T15:19:42;24.50;99.90
30648;DHT22;17683;53.360;9.736;2022-08-19T15:22:08;24.50;99.90
30648;DHT22;17683;53.360;9.736;2022-08-19T15:24:34;24.50;99.90
30648;DHT22;17683;53.360;9.736;2022-08-19T15:27:02;24.60;99.90
30648;DHT22;17683;53.360;9.736;2022-08-19T15:29:28;24.60;99.90
30648;DHT22;17683;53.360;9.736;2022-08-19T15:31:54;24.70;99.90
30648;DHT22;17683;53.360;9.736;2022-08-19T15:34:24;24.60;99.90
30648;DHT22;17683;53.360;9.736;2022-08-19T15:36:51;24.50;99.90
30648;DHT22;17683;53.360;9.736;2022-08-19T15:39:17;24.30;99.90
30648;DHT22;17683;53.360;9.736;2022-08-19T15:41:44;24.10;99.90
30648;DHT22;17683;53.360;9.736;2022-08-19T15:44:13;24.10;99.90